sensor_id;sensor_type;location;lat;lon;timestamp;P1;durP1;ratioP1;P2;durP2;ratioP2
24787;SDS011;12883;52.662;5.196;2023-04-03T00:02:09;1.30;;;1.30;;
24787;SDS011;12883;52.662;5.196;2023-04-03T00:04:35;1.10;;;1.10;;
24787;SDS011;12883;52.662;5.196;2023-04-03T00:07:00;1.30;;;1.30;;
24787;SDS011;12883;52.662;5.196;2023-04-03T00:09:25;1.33;;;1.33;;
24787;SDS011;12883;52.662;5.196;2023-04-03T00:11:51;1.63;;;1.63;;
24787;SDS011;12883;52.662;5.196;2023-04-03T00:14:16;1.30;;;1.30;;
24787;SDS011;12883;52.662;5.196;2023-04-03T00:16:42;1.40;;;1.40;;
24787;SDS011;12883;52.662;5.196;2023-04-03T00:19:07;1.50;;;1.50;;
24787;SDS011;12883;52.662;5.196;2023-04-03T00:21:33;1.90;;;1.90;;
24787;SDS011;12883;52.662;5.196;2023-04-03T00:23:58;1.20;;;1.20;;
24787;SDS011;12883;52.662;5.196;2023-04-03T00:26:24;1.13;;;1.13;;
24787;SDS011;12883;52.662;5.196;2023-04-03T00:28:49;1.50;;;1.50;;
24787;SDS011;12883;52.662;5.196;2023-04-03T00:31:15;1.20;;;1.20;;
24787;SDS011;12883;52.662;5.196;2023-04-03T00:33:41;1.60;;;1.60;;
24787;SDS011;12883;52.662;5.196;2023-04-03T00:36:07;1.70;;;1.70;;
24787;SDS011;12883;52.662;5.196;2023-04-03T00:38:34;1.30;;;1.30;;
24787;SDS011;12883;52.662;5.196;2023-04-03T00:40:59;1.77;;;1.77;;
24787;SDS011;12883;52.662;5.196;2023-04-03T00:43:25;1.70;;;1.70;;
24787;SDS011;12883;52.662;5.196;2023-04-03T00:45:52;1.50;;;1.50;;
24787;SDS011;12883;52.662;5.196;2023-04-03T00:48:24;1.53;;;1.53;;
24787;SDS011;12883;52.662;5.196;2023-04-03T00:50:54;1.30;;;1.30;;
24787;SDS011;12883;52.662;5.196;2023-04-03T00:53:22;1.17;;;1.17;;
24787;SDS011;12883;52.662;5.196;2023-04-03T00:55:50;1.27;;;1.27;;
24787;SDS011;12883;52.662;5.196;2023-04-03T00:58:18;1.13;;;1.13;;
24787;SDS011;12883;52.662;5.196;2023-04-03T01:00:46;1.33;;;1.33;;
24787;SDS011;12883;52.662;5.196;2023-04-03T01:03:18;1.37;;;1.37;;
24787;SDS011;12883;52.662;5.196;2023-04-03T01:05:43;1.50;;;1.50;;
24787;SDS011;12883;52.662;5.196;2023-04-03T01:08:09;1.30;;;1.30;;
24787;SDS011;12883;52.662;5.196;2023-04-03T01:10:35;1.13;;;1.13;;
24787;SDS011;12883;52.662;5.196;2023-04-03T01:13:00;1.20;;;1.20;;
24787;SDS011;12883;52.662;5.196;2023-04-03T01:15:27;1.27;;;1.27;;
24787;SDS011;12883;52.662;5.196;2023-04-03T01:17:59;1.53;;;1.53;;
24787;SDS011;12883;52.662;5.196;2023-04-03T01:25:35;1.33;;;1.33;;
24787;SDS011;12883;52.662;5.196;2023-04-03T01:28:34;1.60;;;1.60;;
24787;SDS011;12883;52.662;5.196;2023-04-03T01:33:40;1.60;;;1.60;;
24787;SDS011;12883;52.662;5.196;2023-04-03T01:36:06;1.50;;;1.50;;
24787;SDS011;12883;52.662;5.196;2023-04-03T01:38:32;1.80;;;1.80;;
24787;SDS011;12883;52.662;5.196;2023-04-03T01:40:57;1.50;;;1.50;;
24787;SDS011;12883;52.662;5.196;2023-04-03T01:43:23;1.50;;;1.50;;
24787;SDS011;12883;52.662;5.196;2023-04-03T01:45:48;1.50;;;1.50;;
24787;SDS011;12883;52.662;5.196;2023-04-03T01:48:19;1.50;;;1.50;;
24787;SDS011;12883;52.662;5.196;2023-04-03T01:50:45;1.67;;;1.67;;
24787;SDS011;12883;52.662;5.196;2023-04-03T01:53:10;1.83;;;1.83;;
24787;SDS011;12883;52.662;5.196;2023-04-03T01:55:36;1.90;;;1.90;;
24787;SDS011;12883;52.662;5.196;2023-04-03T01:58:01;1.53;;;1.53;;
24787;SDS011;12883;52.662;5.196;2023-04-03T02:00:26;1.60;;;1.60;;
24787;SDS011;12883;52.662;5.196;2023-04-03T02:02:52;2.17;;;2.17;;
24787;SDS011;12883;52.662;5.196;2023-04-03T02:05:17;1.50;;;1.50;;
24787;SDS011;12883;52.662;5.196;2023-04-03T02:07:43;1.30;;;1.30;;
24787;SDS011;12883;52.662;5.196;2023-04-03T02:10:09;1.40;;;1.40;;
24787;SDS011;12883;52.662;5.196;2023-04-03T02:12:34;1.97;;;1.97;;
24787;SDS011;12883;52.662;5.196;2023-04-03T02:15:00;1.33;;;1.33;;
24787;SDS011;12883;52.662;5.196;2023-04-03T02:17:25;1.70;;;1.70;;
24787;SDS011;12883;52.662;5.196;2023-04-03T02:19:51;1.67;;;1.67;;
24787;SDS011;12883;52.662;5.196;2023-04-03T02:22:16;1.53;;;1.53;;
24787;SDS011;12883;52.662;5.196;2023-04-03T02:24:42;1.83;;;1.83;;
24787;SDS011;12883;52.662;5.196;2023-04-03T02:27:07;1.60;;;1.60;;
24787;SDS011;12883;52.662;5.196;2023-04-03T02:29:32;1.77;;;1.77;;
24787;SDS011;12883;52.662;5.196;2023-04-03T02:31:58;1.50;;;1.50;;
24787;SDS011;12883;52.662;5.196;2023-04-03T02:34:23;1.83;;;1.83;;
24787;SDS011;12883;52.662;5.196;2023-04-03T02:36:49;1.60;;;1.60;;
24787;SDS011;12883;52.662;5.196;2023-04-03T02:39:14;1.60;;;1.60;;
24787;SDS011;12883;52.662;5.196;2023-04-03T02:41:39;1.67;;;1.67;;
24787;SDS011;12883;52.662;5.196;2023-04-03T02:44:05;1.27;;;1.27;;
24787;SDS011;12883;52.662;5.196;2023-04-03T02:46:32;1.83;;;1.83;;
24787;SDS011;12883;52.662;5.196;2023-04-03T02:48:58;2.20;;;2.20;;
24787;SDS011;12883;52.662;5.196;2023-04-03T02:51:23;1.70;;;1.70;;
24787;SDS011;12883;52.662;5.196;2023-04-03T02:53:49;1.70;;;1.70;;
24787;SDS011;12883;52.662;5.196;2023-04-03T02:56:15;1.77;;;1.77;;
24787;SDS011;12883;52.662;5.196;2023-04-03T02:58:42;1.47;;;1.47;;
24787;SDS011;12883;52.662;5.196;2023-04-03T03:01:07;1.70;;;1.70;;
24787;SDS011;12883;52.662;5.196;2023-04-03T03:03:33;1.70;;;1.70;;
24787;SDS011;12883;52.662;5.196;2023-04-03T03:06:05;1.67;;;1.67;;
24787;SDS011;12883;52.662;5.196;2023-04-03T03:08:31;1.60;;;1.60;;
24787;SDS011;12883;52.662;5.196;2023-04-03T03:10:56;1.67;;;1.67;;
24787;SDS011;12883;52.662;5.196;2023-04-03T03:13:22;1.63;;;1.63;;
24787;SDS011;12883;52.662;5.196;2023-04-03T03:15:47;1.50;;;1.50;;
24787;SDS011;12883;52.662;5.196;2023-04-03T03:18:13;2.30;;;2.30;;
24787;SDS011;12883;52.662;5.196;2023-04-03T03:20:38;1.50;;;1.50;;
24787;SDS011;12883;52.662;5.196;2023-04-03T03:23:03;1.50;;;1.50;;
24787;SDS011;12883;52.662;5.196;2023-04-03T03:25:29;1.60;;;1.60;;
24787;SDS011;12883;52.662;5.196;2023-04-03T03:27:54;1.90;;;1.90;;
24787;SDS011;12883;52.662;5.196;2023-04-03T03:30:19;1.63;;;1.63;;
24787;SDS011;12883;52.662;5.196;2023-04-03T03:32:45;1.70;;;1.70;;
24787;SDS011;12883;52.662;5.196;2023-04-03T03:35:11;2.20;;;2.20;;
24787;SDS011;12883;52.662;5.196;2023-04-03T03:37:36;1.47;;;1.47;;
24787;SDS011;12883;52.662;5.196;2023-04-03T03:40:02;2.07;;;2.07;;
24787;SDS011;12883;52.662;5.196;2023-04-03T03:42:27;1.63;;;1.63;;
24787;SDS011;12883;52.662;5.196;2023-04-03T03:44:52;2.03;;;2.03;;
24787;SDS011;12883;52.662;5.196;2023-04-03T03:47:18;1.80;;;1.80;;
24787;SDS011;12883;52.662;5.196;2023-04-03T03:49:43;1.47;;;1.47;;
24787;SDS011;12883;52.662;5.196;2023-04-03T03:52:09;1.60;;;1.60;;
24787;SDS011;12883;52.662;5.196;2023-04-03T03:54:37;1.77;;;1.77;;
24787;SDS011;12883;52.662;5.196;2023-04-03T03:57:03;1.70;;;1.70;;
24787;SDS011;12883;52.662;5.196;2023-04-03T03:59:28;2.20;;;2.20;;
24787;SDS011;12883;52.662;5.196;2023-04-03T04:01:54;2.00;;;2.00;;
24787;SDS011;12883;52.662;5.196;2023-04-03T04:04:19;2.00;;;2.00;;
24787;SDS011;12883;52.662;5.196;2023-04-03T04:06:45;1.77;;;1.77;;
24787;SDS011;12883;52.662;5.196;2023-04-03T04:09:10;1.50;;;1.50;;
24787;SDS011;12883;52.662;5.196;2023-04-03T04:11:36;1.90;;;1.90;;
24787;SDS011;12883;52.662;5.196;2023-04-03T04:14:01;2.10;;;2.10;;
24787;SDS011;12883;52.662;5.196;2023-04-03T04:16:27;2.07;;;2.07;;
24787;SDS011;12883;52.662;5.196;2023-04-03T04:18:52;2.10;;;2.10;;
24787;SDS011;12883;52.662;5.196;2023-04-03T04:21:17;1.77;;;1.77;;
24787;SDS011;12883;52.662;5.196;2023-04-03T04:23:43;2.40;;;2.40;;
24787;SDS011;12883;52.662;5.196;2023-04-03T04:26:08;2.40;;;2.40;;
24787;SDS011;12883;52.662;5.196;2023-04-03T04:28:33;2.03;;;2.03;;
24787;SDS011;12883;52.662;5.196;2023-04-03T04:30:58;2.27;;;2.27;;
24787;SDS011;12883;52.662;5.196;2023-04-03T04:33:24;1.97;;;1.97;;
24787;SDS011;12883;52.662;5.196;2023-04-03T04:35:49;2.30;;;2.30;;
24787;SDS011;12883;52.662;5.196;2023-04-03T04:38:15;2.37;;;2.37;;
24787;SDS011;12883;52.662;5.196;2023-04-03T04:40:40;1.90;;;1.90;;
24787;SDS011;12883;52.662;5.196;2023-04-03T04:43:06;2.47;;;2.47;;
24787;SDS011;12883;52.662;5.196;2023-04-03T04:45:31;1.93;;;1.93;;
24787;SDS011;12883;52.662;5.196;2023-04-03T04:47:57;2.40;;;2.40;;
24787;SDS011;12883;52.662;5.196;2023-04-03T04:50:22;1.80;;;1.80;;
24787;SDS011;12883;52.662;5.196;2023-04-03T04:52:47;2.13;;;2.13;;
24787;SDS011;12883;52.662;5.196;2023-04-03T04:55:13;1.83;;;1.83;;
24787;SDS011;12883;52.662;5.196;2023-04-03T04:57:38;2.40;;;2.40;;
24787;SDS011;12883;52.662;5.196;2023-04-03T05:00:04;2.13;;;2.13;;
24787;SDS011;12883;52.662;5.196;2023-04-03T05:02:30;2.20;;;2.20;;
24787;SDS011;12883;52.662;5.196;2023-04-03T05:04:55;2.70;;;2.70;;
24787;SDS011;12883;52.662;5.196;2023-04-03T05:07:21;2.63;;;2.63;;
24787;SDS011;12883;52.662;5.196;2023-04-03T05:09:47;2.17;;;2.17;;
24787;SDS011;12883;52.662;5.196;2023-04-03T05:12:12;2.33;;;2.33;;
24787;SDS011;12883;52.662;5.196;2023-04-03T05:14:37;1.77;;;1.77;;
24787;SDS011;12883;52.662;5.196;2023-04-03T05:17:03;2.13;;;2.13;;
24787;SDS011;12883;52.662;5.196;2023-04-03T05:19:28;2.23;;;2.23;;
24787;SDS011;12883;52.662;5.196;2023-04-03T05:21:54;2.20;;;2.20;;
24787;SDS011;12883;52.662;5.196;2023-04-03T05:24:19;2.20;;;2.20;;
24787;SDS011;12883;52.662;5.196;2023-04-03T05:26:45;2.40;;;2.40;;
24787;SDS011;12883;52.662;5.196;2023-04-03T05:29:10;2.37;;;2.37;;
24787;SDS011;12883;52.662;5.196;2023-04-03T05:31:36;2.00;;;2.00;;
24787;SDS011;12883;52.662;5.196;2023-04-03T05:34:01;2.57;;;2.57;;
24787;SDS011;12883;52.662;5.196;2023-04-03T05:36:27;2.40;;;2.40;;
24787;SDS011;12883;52.662;5.196;2023-04-03T05:38:52;2.30;;;2.30;;
24787;SDS011;12883;52.662;5.196;2023-04-03T05:41:18;2.00;;;2.00;;
24787;SDS011;12883;52.662;5.196;2023-04-03T05:43:45;2.30;;;2.30;;
24787;SDS011;12883;52.662;5.196;2023-04-03T05:46:11;2.17;;;2.17;;
24787;SDS011;12883;52.662;5.196;2023-04-03T05:48:39;2.33;;;2.33;;
24787;SDS011;12883;52.662;5.196;2023-04-03T05:51:05;2.33;;;2.33;;
24787;SDS011;12883;52.662;5.196;2023-04-03T05:53:32;2.43;;;2.43;;
24787;SDS011;12883;52.662;5.196;2023-04-03T05:56:01;2.50;;;2.50;;
24787;SDS011;12883;52.662;5.196;2023-04-03T05:58:26;2.50;;;2.50;;
24787;SDS011;12883;52.662;5.196;2023-04-03T06:00:51;1.90;;;1.90;;
24787;SDS011;12883;52.662;5.196;2023-04-03T06:03:17;2.33;;;2.33;;
24787;SDS011;12883;52.662;5.196;2023-04-03T06:05:43;2.07;;;2.07;;
24787;SDS011;12883;52.662;5.196;2023-04-03T06:08:08;2.40;;;2.40;;
24787;SDS011;12883;52.662;5.196;2023-04-03T06:10:34;1.83;;;1.83;;
24787;SDS011;12883;52.662;5.196;2023-04-03T06:13:00;1.93;;;1.93;;
24787;SDS011;12883;52.662;5.196;2023-04-03T06:15:25;2.37;;;2.37;;
24787;SDS011;12883;52.662;5.196;2023-04-03T06:17:51;2.37;;;2.37;;
24787;SDS011;12883;52.662;5.196;2023-04-03T06:20:16;2.37;;;2.37;;
24787;SDS011;12883;52.662;5.196;2023-04-03T06:22:41;2.73;;;2.73;;
24787;SDS011;12883;52.662;5.196;2023-04-03T06:25:07;2.50;;;2.50;;
24787;SDS011;12883;52.662;5.196;2023-04-03T06:27:33;2.20;;;2.20;;
24787;SDS011;12883;52.662;5.196;2023-04-03T06:29:58;2.63;;;2.63;;
24787;SDS011;12883;52.662;5.196;2023-04-03T06:32:23;2.20;;;2.20;;
24787;SDS011;12883;52.662;5.196;2023-04-03T06:34:49;2.40;;;2.40;;
24787;SDS011;12883;52.662;5.196;2023-04-03T06:37:15;2.40;;;2.40;;
24787;SDS011;12883;52.662;5.196;2023-04-03T06:39:42;2.37;;;2.37;;
24787;SDS011;12883;52.662;5.196;2023-04-03T06:42:07;3.03;;;3.03;;
24787;SDS011;12883;52.662;5.196;2023-04-03T06:44:33;2.60;;;2.60;;
24787;SDS011;12883;52.662;5.196;2023-04-03T06:46:59;2.27;;;2.27;;
24787;SDS011;12883;52.662;5.196;2023-04-03T06:49:25;2.37;;;2.37;;
24787;SDS011;12883;52.662;5.196;2023-04-03T06:51:51;2.13;;;2.13;;
24787;SDS011;12883;52.662;5.196;2023-04-03T06:54:17;2.60;;;2.60;;
24787;SDS011;12883;52.662;5.196;2023-04-03T06:56:43;2.30;;;2.30;;
24787;SDS011;12883;52.662;5.196;2023-04-03T06:59:09;2.20;;;2.20;;
24787;SDS011;12883;52.662;5.196;2023-04-03T07:01:35;2.27;;;2.27;;
24787;SDS011;12883;52.662;5.196;2023-04-03T07:04:00;2.50;;;2.50;;
24787;SDS011;12883;52.662;5.196;2023-04-03T07:06:26;2.70;;;2.70;;
24787;SDS011;12883;52.662;5.196;2023-04-03T07:08:54;2.77;;;2.77;;
24787;SDS011;12883;52.662;5.196;2023-04-03T07:11:20;2.50;;;2.50;;
24787;SDS011;12883;52.662;5.196;2023-04-03T07:13:47;2.50;;;2.50;;
24787;SDS011;12883;52.662;5.196;2023-04-03T07:16:13;2.67;;;2.67;;
24787;SDS011;12883;52.662;5.196;2023-04-03T07:18:38;2.50;;;2.50;;
24787;SDS011;12883;52.662;5.196;2023-04-03T07:21:04;2.37;;;2.37;;
24787;SDS011;12883;52.662;5.196;2023-04-03T07:23:29;2.87;;;2.87;;
24787;SDS011;12883;52.662;5.196;2023-04-03T07:25:55;2.80;;;2.80;;
24787;SDS011;12883;52.662;5.196;2023-04-03T07:28:21;2.40;;;2.40;;
24787;SDS011;12883;52.662;5.196;2023-04-03T07:30:48;3.07;;;3.07;;
24787;SDS011;12883;52.662;5.196;2023-04-03T07:33:16;2.87;;;2.87;;
24787;SDS011;12883;52.662;5.196;2023-04-03T07:35:43;2.90;;;2.90;;
24787;SDS011;12883;52.662;5.196;2023-04-03T07:38:09;2.90;;;2.90;;
24787;SDS011;12883;52.662;5.196;2023-04-03T07:40:35;3.00;;;3.00;;
24787;SDS011;12883;52.662;5.196;2023-04-03T07:43:02;2.80;;;2.80;;
24787;SDS011;12883;52.662;5.196;2023-04-03T07:45:28;2.50;;;2.50;;
24787;SDS011;12883;52.662;5.196;2023-04-03T07:47:53;2.93;;;2.93;;
24787;SDS011;12883;52.662;5.196;2023-04-03T07:50:18;3.13;;;3.13;;
24787;SDS011;12883;52.662;5.196;2023-04-03T07:52:44;3.50;;;3.50;;
24787;SDS011;12883;52.662;5.196;2023-04-03T07:55:10;3.13;;;3.13;;
24787;SDS011;12883;52.662;5.196;2023-04-03T07:57:36;3.20;;;3.20;;
24787;SDS011;12883;52.662;5.196;2023-04-03T08:00:03;3.30;;;3.30;;
24787;SDS011;12883;52.662;5.196;2023-04-03T08:02:29;2.80;;;2.80;;
24787;SDS011;12883;52.662;5.196;2023-04-03T08:04:56;2.90;;;2.90;;
24787;SDS011;12883;52.662;5.196;2023-04-03T08:07:22;2.60;;;2.60;;
24787;SDS011;12883;52.662;5.196;2023-04-03T08:09:47;3.03;;;3.03;;
24787;SDS011;12883;52.662;5.196;2023-04-03T08:12:13;2.77;;;2.77;;
24787;SDS011;12883;52.662;5.196;2023-04-03T08:14:39;2.33;;;2.33;;
24787;SDS011;12883;52.662;5.196;2023-04-03T08:17:05;2.20;;;2.20;;
24787;SDS011;12883;52.662;5.196;2023-04-03T08:19:34;2.57;;;2.57;;
24787;SDS011;12883;52.662;5.196;2023-04-03T08:22:00;2.23;;;2.23;;
24787;SDS011;12883;52.662;5.196;2023-04-03T08:24:28;2.53;;;2.53;;
24787;SDS011;12883;52.662;5.196;2023-04-03T08:26:53;2.73;;;2.73;;
24787;SDS011;12883;52.662;5.196;2023-04-03T08:29:19;1.97;;;1.97;;
24787;SDS011;12883;52.662;5.196;2023-04-03T08:31:46;1.90;;;1.90;;
24787;SDS011;12883;52.662;5.196;2023-04-03T08:34:11;2.20;;;2.20;;
24787;SDS011;12883;52.662;5.196;2023-04-03T08:36:38;1.93;;;1.93;;
24787;SDS011;12883;52.662;5.196;2023-04-03T08:39:03;2.07;;;2.07;;
24787;SDS011;12883;52.662;5.196;2023-04-03T08:41:39;2.17;;;2.17;;
24787;SDS011;12883;52.662;5.196;2023-04-03T08:55:07;1.80;;;1.80;;
24787;SDS011;12883;52.662;5.196;2023-04-03T08:57:41;2.23;;;2.23;;
24787;SDS011;12883;52.662;5.196;2023-04-03T09:02:42;2.63;;;2.63;;
24787;SDS011;12883;52.662;5.196;2023-04-03T09:05:15;2.00;;;2.00;;
24787;SDS011;12883;52.662;5.196;2023-04-03T09:07:43;3.00;;;3.00;;
24787;SDS011;12883;52.662;5.196;2023-04-03T09:10:13;2.00;;;2.00;;
24787;SDS011;12883;52.662;5.196;2023-04-03T09:12:41;1.90;;;1.90;;
24787;SDS011;12883;52.662;5.196;2023-04-03T09:15:20;1.90;;;1.90;;
24787;SDS011;12883;52.662;5.196;2023-04-03T09:22:45;1.70;;;1.70;;
24787;SDS011;12883;52.662;5.196;2023-04-03T09:25:32;1.93;;;1.93;;
24787;SDS011;12883;52.662;5.196;2023-04-03T09:28:02;1.97;;;1.97;;
24787;SDS011;12883;52.662;5.196;2023-04-03T09:30:34;1.50;;;1.50;;
24787;SDS011;12883;52.662;5.196;2023-04-03T09:33:00;2.03;;;2.03;;
24787;SDS011;12883;52.662;5.196;2023-04-03T09:38:19;1.60;;;1.60;;
24787;SDS011;12883;52.662;5.196;2023-04-03T09:40:48;1.50;;;1.50;;
24787;SDS011;12883;52.662;5.196;2023-04-03T09:45:46;1.50;;;1.50;;
24787;SDS011;12883;52.662;5.196;2023-04-03T09:50:52;1.60;;;1.60;;
24787;SDS011;12883;52.662;5.196;2023-04-03T09:53:32;1.47;;;1.47;;
24787;SDS011;12883;52.662;5.196;2023-04-03T09:56:48;1.67;;;1.67;;
24787;SDS011;12883;52.662;5.196;2023-04-03T10:04:06;1.20;;;1.20;;
24787;SDS011;12883;52.662;5.196;2023-04-03T10:06:32;1.43;;;1.43;;
24787;SDS011;12883;52.662;5.196;2023-04-03T10:09:05;1.30;;;1.30;;
24787;SDS011;12883;52.662;5.196;2023-04-03T10:11:56;1.33;;;1.33;;
24787;SDS011;12883;52.662;5.196;2023-04-03T10:14:22;1.03;;;1.03;;
24787;SDS011;12883;52.662;5.196;2023-04-03T10:16:48;1.37;;;1.37;;
24787;SDS011;12883;52.662;5.196;2023-04-03T10:19:39;1.40;;;1.40;;
24787;SDS011;12883;52.662;5.196;2023-04-03T10:41:17;1.03;;;1.03;;
24787;SDS011;12883;52.662;5.196;2023-04-03T10:46:49;1.00;;;1.00;;
24787;SDS011;12883;52.662;5.196;2023-04-03T10:49:27;0.70;;;0.70;;
24787;SDS011;12883;52.662;5.196;2023-04-03T10:52:09;0.80;;;0.80;;
24787;SDS011;12883;52.662;5.196;2023-04-03T10:58:17;0.80;;;0.80;;
24787;SDS011;12883;52.662;5.196;2023-04-03T11:00:49;1.00;;;1.00;;
24787;SDS011;12883;52.662;5.196;2023-04-03T11:03:29;0.90;;;0.90;;
24787;SDS011;12883;52.662;5.196;2023-04-03T11:06:01;1.03;;;1.03;;
24787;SDS011;12883;52.662;5.196;2023-04-03T11:08:48;1.00;;;1.00;;
24787;SDS011;12883;52.662;5.196;2023-04-03T11:11:22;0.70;;;0.70;;
24787;SDS011;12883;52.662;5.196;2023-04-03T11:13:53;0.60;;;0.60;;
24787;SDS011;12883;52.662;5.196;2023-04-03T11:16:24;0.70;;;0.70;;
24787;SDS011;12883;52.662;5.196;2023-04-03T11:18:59;0.80;;;0.80;;
24787;SDS011;12883;52.662;5.196;2023-04-03T11:21:29;0.70;;;0.70;;
24787;SDS011;12883;52.662;5.196;2023-04-03T11:24:00;1.03;;;1.03;;
24787;SDS011;12883;52.662;5.196;2023-04-03T11:26:36;0.90;;;0.90;;
24787;SDS011;12883;52.662;5.196;2023-04-03T11:29:14;1.30;;;1.30;;
24787;SDS011;12883;52.662;5.196;2023-04-03T11:32:05;1.00;;;1.00;;
24787;SDS011;12883;52.662;5.196;2023-04-03T11:34:51;0.80;;;0.80;;
24787;SDS011;12883;52.662;5.196;2023-04-03T11:37:39;0.90;;;0.90;;
24787;SDS011;12883;52.662;5.196;2023-04-03T11:42:42;1.00;;;1.00;;
24787;SDS011;12883;52.662;5.196;2023-04-03T11:47:50;0.90;;;0.90;;
24787;SDS011;12883;52.662;5.196;2023-04-03T12:05:57;0.93;;;0.93;;
24787;SDS011;12883;52.662;5.196;2023-04-03T12:16:22;1.00;;;1.00;;
24787;SDS011;12883;52.662;5.196;2023-04-03T12:21:20;0.80;;;0.80;;
24787;SDS011;12883;52.662;5.196;2023-04-03T12:40:45;0.90;;;0.90;;
24787;SDS011;12883;52.662;5.196;2023-04-03T12:43:28;1.00;;;1.00;;
24787;SDS011;12883;52.662;5.196;2023-04-03T12:45:58;1.03;;;1.03;;
24787;SDS011;12883;52.662;5.196;2023-04-03T12:48:28;1.17;;;1.17;;
24787;SDS011;12883;52.662;5.196;2023-04-03T12:50:56;1.20;;;1.20;;
24787;SDS011;12883;52.662;5.196;2023-04-03T12:53:26;0.83;;;0.83;;
24787;SDS011;12883;52.662;5.196;2023-04-03T12:56:18;1.33;;;1.33;;
24787;SDS011;12883;52.662;5.196;2023-04-03T13:01:55;1.20;;;1.20;;
24787;SDS011;12883;52.662;5.196;2023-04-03T13:04:23;0.90;;;0.90;;
24787;SDS011;12883;52.662;5.196;2023-04-03T13:06:49;0.73;;;0.73;;
24787;SDS011;12883;52.662;5.196;2023-04-03T13:11:46;1.17;;;1.17;;
24787;SDS011;12883;52.662;5.196;2023-04-03T13:14:19;0.90;;;0.90;;
24787;SDS011;12883;52.662;5.196;2023-04-03T13:19:29;1.40;;;1.40;;
24787;SDS011;12883;52.662;5.196;2023-04-03T13:22:05;1.00;;;1.00;;
24787;SDS011;12883;52.662;5.196;2023-04-03T13:24:34;1.03;;;1.03;;
24787;SDS011;12883;52.662;5.196;2023-04-03T13:27:02;1.10;;;1.10;;
24787;SDS011;12883;52.662;5.196;2023-04-03T13:29:32;1.37;;;1.37;;
24787;SDS011;12883;52.662;5.196;2023-04-03T13:32:02;1.20;;;1.20;;
24787;SDS011;12883;52.662;5.196;2023-04-03T13:34:35;1.17;;;1.17;;
24787;SDS011;12883;52.662;5.196;2023-04-03T13:37:03;1.00;;;1.00;;
24787;SDS011;12883;52.662;5.196;2023-04-03T13:39:36;0.93;;;0.93;;
24787;SDS011;12883;52.662;5.196;2023-04-03T13:47:45;1.07;;;1.07;;
24787;SDS011;12883;52.662;5.196;2023-04-03T13:50:14;1.00;;;1.00;;
24787;SDS011;12883;52.662;5.196;2023-04-03T13:52:43;1.30;;;1.30;;
24787;SDS011;12883;52.662;5.196;2023-04-03T13:55:31;0.90;;;0.90;;
24787;SDS011;12883;52.662;5.196;2023-04-03T13:57:58;1.00;;;1.00;;
24787;SDS011;12883;52.662;5.196;2023-04-03T14:00:32;0.90;;;0.90;;
24787;SDS011;12883;52.662;5.196;2023-04-03T14:03:07;1.20;;;1.20;;
24787;SDS011;12883;52.662;5.196;2023-04-03T14:05:38;1.03;;;1.03;;
24787;SDS011;12883;52.662;5.196;2023-04-03T14:08:03;1.23;;;1.23;;
24787;SDS011;12883;52.662;5.196;2023-04-03T14:10:29;1.00;;;1.00;;
24787;SDS011;12883;52.662;5.196;2023-04-03T14:12:55;1.20;;;1.20;;
24787;SDS011;12883;52.662;5.196;2023-04-03T14:15:26;1.07;;;1.07;;
24787;SDS011;12883;52.662;5.196;2023-04-03T14:17:53;0.97;;;0.97;;
24787;SDS011;12883;52.662;5.196;2023-04-03T14:20:21;1.17;;;1.17;;
24787;SDS011;12883;52.662;5.196;2023-04-03T14:22:48;1.33;;;1.33;;
24787;SDS011;12883;52.662;5.196;2023-04-03T14:25:14;1.03;;;1.03;;
24787;SDS011;12883;52.662;5.196;2023-04-03T14:27:42;0.90;;;0.90;;
24787;SDS011;12883;52.662;5.196;2023-04-03T14:30:17;0.90;;;0.90;;
24787;SDS011;12883;52.662;5.196;2023-04-03T14:32:46;1.20;;;1.20;;
24787;SDS011;12883;52.662;5.196;2023-04-03T14:35:12;1.23;;;1.23;;
24787;SDS011;12883;52.662;5.196;2023-04-03T14:37:39;0.80;;;0.80;;
24787;SDS011;12883;52.662;5.196;2023-04-03T14:40:05;0.90;;;0.90;;
24787;SDS011;12883;52.662;5.196;2023-04-03T14:42:33;0.90;;;0.90;;
24787;SDS011;12883;52.662;5.196;2023-04-03T14:45:02;1.17;;;1.17;;
24787;SDS011;12883;52.662;5.196;2023-04-03T14:47:30;1.43;;;1.43;;
24787;SDS011;12883;52.662;5.196;2023-04-03T14:49:56;1.00;;;1.00;;
24787;SDS011;12883;52.662;5.196;2023-04-03T14:52:23;1.00;;;1.00;;
24787;SDS011;12883;52.662;5.196;2023-04-03T14:54:49;1.20;;;1.20;;
24787;SDS011;12883;52.662;5.196;2023-04-03T14:57:15;1.07;;;1.07;;
24787;SDS011;12883;52.662;5.196;2023-04-03T14:59:42;1.23;;;1.23;;
24787;SDS011;12883;52.662;5.196;2023-04-03T15:02:28;1.03;;;1.03;;
24787;SDS011;12883;52.662;5.196;2023-04-03T15:04:54;0.90;;;0.90;;
24787;SDS011;12883;52.662;5.196;2023-04-03T15:07:21;1.40;;;1.40;;
24787;SDS011;12883;52.662;5.196;2023-04-03T15:09:47;1.03;;;1.03;;
24787;SDS011;12883;52.662;5.196;2023-04-03T15:12:13;1.00;;;1.00;;
24787;SDS011;12883;52.662;5.196;2023-04-03T15:14:38;1.30;;;1.30;;
24787;SDS011;12883;52.662;5.196;2023-04-03T15:17:04;0.93;;;0.93;;
24787;SDS011;12883;52.662;5.196;2023-04-03T15:19:35;1.17;;;1.17;;
24787;SDS011;12883;52.662;5.196;2023-04-03T15:22:02;1.23;;;1.23;;
24787;SDS011;12883;52.662;5.196;2023-04-03T15:24:27;0.97;;;0.97;;
24787;SDS011;12883;52.662;5.196;2023-04-03T15:26:53;1.27;;;1.27;;
24787;SDS011;12883;52.662;5.196;2023-04-03T15:29:19;1.30;;;1.30;;
24787;SDS011;12883;52.662;5.196;2023-04-03T15:31:44;1.40;;;1.40;;
24787;SDS011;12883;52.662;5.196;2023-04-03T15:34:09;1.40;;;1.40;;
24787;SDS011;12883;52.662;5.196;2023-04-03T15:36:35;1.63;;;1.63;;
24787;SDS011;12883;52.662;5.196;2023-04-03T15:39:00;1.23;;;1.23;;
24787;SDS011;12883;52.662;5.196;2023-04-03T15:41:25;1.23;;;1.23;;
24787;SDS011;12883;52.662;5.196;2023-04-03T15:43:51;1.50;;;1.50;;
24787;SDS011;12883;52.662;5.196;2023-04-03T15:46:16;1.50;;;1.50;;
24787;SDS011;12883;52.662;5.196;2023-04-03T15:48:42;1.50;;;1.50;;
24787;SDS011;12883;52.662;5.196;2023-04-03T15:51:07;1.40;;;1.40;;
24787;SDS011;12883;52.662;5.196;2023-04-03T15:53:32;1.33;;;1.33;;
24787;SDS011;12883;52.662;5.196;2023-04-03T15:55:58;1.50;;;1.50;;
24787;SDS011;12883;52.662;5.196;2023-04-03T15:58:23;1.60;;;1.60;;
24787;SDS011;12883;52.662;5.196;2023-04-03T16:00:48;1.90;;;1.90;;
24787;SDS011;12883;52.662;5.196;2023-04-03T16:03:15;1.40;;;1.40;;
24787;SDS011;12883;52.662;5.196;2023-04-03T16:05:42;1.13;;;1.13;;
24787;SDS011;12883;52.662;5.196;2023-04-03T16:08:08;1.00;;;1.00;;
24787;SDS011;12883;52.662;5.196;2023-04-03T16:10:34;1.77;;;1.77;;
24787;SDS011;12883;52.662;5.196;2023-04-03T16:13:01;1.57;;;1.57;;
24787;SDS011;12883;52.662;5.196;2023-04-03T16:15:26;1.37;;;1.37;;
24787;SDS011;12883;52.662;5.196;2023-04-03T16:17:52;1.40;;;1.40;;
24787;SDS011;12883;52.662;5.196;2023-04-03T16:20:19;1.40;;;1.40;;
24787;SDS011;12883;52.662;5.196;2023-04-03T16:22:46;1.63;;;1.63;;
24787;SDS011;12883;52.662;5.196;2023-04-03T16:25:13;1.83;;;1.73;;
24787;SDS011;12883;52.662;5.196;2023-04-03T16:27:38;1.27;;;1.27;;
24787;SDS011;12883;52.662;5.196;2023-04-03T16:30:05;1.40;;;1.40;;
24787;SDS011;12883;52.662;5.196;2023-04-03T16:32:31;1.63;;;1.63;;
24787;SDS011;12883;52.662;5.196;2023-04-03T16:34:57;1.87;;;1.87;;
24787;SDS011;12883;52.662;5.196;2023-04-03T16:37:23;1.70;;;1.70;;
24787;SDS011;12883;52.662;5.196;2023-04-03T16:39:48;1.60;;;1.60;;
24787;SDS011;12883;52.662;5.196;2023-04-03T16:42:14;1.70;;;1.70;;
24787;SDS011;12883;52.662;5.196;2023-04-03T16:44:40;1.63;;;1.63;;
24787;SDS011;12883;52.662;5.196;2023-04-03T16:47:06;1.50;;;1.50;;
24787;SDS011;12883;52.662;5.196;2023-04-03T16:49:32;1.40;;;1.40;;
24787;SDS011;12883;52.662;5.196;2023-04-03T16:52:02;1.67;;;1.67;;
24787;SDS011;12883;52.662;5.196;2023-04-03T16:54:29;1.70;;;1.70;;
24787;SDS011;12883;52.662;5.196;2023-04-03T16:56:55;1.40;;;1.40;;
24787;SDS011;12883;52.662;5.196;2023-04-03T16:59:21;1.77;;;1.77;;